createdAt,value
2022-12-22T00:00:02.006Z,990.12
2022-12-22T00:05:02.048Z,990.13
2022-12-22T00:10:01.409Z,990.13
2022-12-22T00:20:02.354Z,989.85
2022-12-22T00:25:01.876Z,989.79
2022-12-22T00:30:01.998Z,989.7
2022-12-22T00:35:02.083Z,989.62
2022-12-22T00:40:01.597Z,989.68
2022-12-22T00:45:01.595Z,989.55
2022-12-22T00:50:01.999Z,989.5
2022-12-22T00:55:01.831Z,989.34
2022-12-22T01:00:02.214Z,989.22
2022-12-22T01:05:02.027Z,989.1
2022-12-22T01:10:01.745Z,989.04
2022-12-22T01:15:01.637Z,989.03
2022-12-22T01:20:01.725Z,988.99
2022-12-22T01:25:02.128Z,989
2022-12-22T01:30:02.059Z,988.89
2022-12-22T01:35:01.387Z,988.86
2022-12-22T01:40:02.029Z,988.8
2022-12-22T01:45:02.178Z,988.79
2022-12-22T01:50:01.315Z,988.72
2022-12-22T01:55:01.305Z,988.64
2022-12-22T02:00:01.611Z,988.57
2022-12-22T02:05:02.216Z,988.53
2022-12-22T02:10:01.346Z,988.47
2022-12-22T02:15:01.920Z,988.38
2022-12-22T02:20:02.259Z,988.29
2022-12-22T02:25:01.688Z,988.18
2022-12-22T02:30:01.642Z,988.02
2022-12-22T02:35:01.901Z,987.97
2022-12-22T02:40:02.176Z,987.84
2022-12-22T02:45:02.113Z,987.77
2022-12-22T02:50:02.181Z,987.67
2022-12-22T02:55:02.163Z,987.62
2022-12-22T03:00:02.144Z,987.52
2022-12-22T03:05:01.929Z,987.57
2022-12-22T03:10:02.114Z,987.43
2022-12-22T03:15:02.077Z,987.34
2022-12-22T03:20:01.902Z,987.16
2022-12-22T03:25:02.051Z,987.05
2022-12-22T03:30:02.078Z,986.94
2022-12-22T03:35:01.486Z,986.91
2022-12-22T03:40:02.168Z,986.78
2022-12-22T03:45:02.147Z,986.8
2022-12-22T03:50:01.765Z,986.72
2022-12-22T03:55:02.233Z,986.57
2022-12-22T04:00:02.277Z,986.47
2022-12-22T04:05:02.254Z,986.41
2022-12-22T04:10:01.575Z,986.45
2022-12-22T04:15:01.962Z,986.34
2022-12-22T04:20:02.215Z,986.26
2022-12-22T04:25:01.747Z,986.18
2022-12-22T04:30:01.432Z,986.07
2022-12-22T04:35:01.478Z,985.94
2022-12-22T04:40:01.711Z,985.82
2022-12-22T04:45:01.463Z,985.75
2022-12-22T04:50:01.656Z,985.7
2022-12-22T04:55:01.661Z,985.57
2022-12-22T05:00:02.239Z,985.52
2022-12-22T05:05:01.928Z,985.51
2022-12-22T05:10:01.980Z,985.37
2022-12-22T05:15:01.942Z,985.3
2022-12-22T05:20:01.840Z,985.25
2022-12-22T05:25:01.989Z,985.3
2022-12-22T05:30:02.160Z,985.41
2022-12-22T05:35:01.908Z,985.34
2022-12-22T05:40:01.682Z,985.54
2022-12-22T05:45:02.084Z,985.59
2022-12-22T05:50:02.221Z,985.65
2022-12-22T05:55:02.945Z,985.73
2022-12-22T06:00:01.682Z,985.67
2022-12-22T06:05:01.860Z,985.58
2022-12-22T06:10:07.779Z,985.55
2022-12-22T06:15:02.063Z,985.62
2022-12-22T06:20:01.863Z,985.58
2022-12-22T06:25:01.916Z,985.56
2022-12-22T06:30:02.106Z,985.55
2022-12-22T06:35:02.105Z,985.58
2022-12-22T06:40:02.082Z,985.59
2022-12-22T06:45:02.001Z,985.78
2022-12-22T06:50:01.541Z,985.83
2022-12-22T06:55:02.226Z,986.07
2022-12-22T07:00:01.986Z,986.39
2022-12-22T07:05:01.693Z,986.46
2022-12-22T07:10:01.977Z,986.58
2022-12-22T07:15:01.564Z,986.61
2022-12-22T07:20:02.064Z,986.68
2022-12-22T07:25:01.455Z,986.84
2022-12-22T07:30:01.882Z,986.91
2022-12-22T07:35:05.684Z,986.99
2022-12-22T07:40:02.235Z,987.08
2022-12-22T07:45:01.764Z,987.14
2022-12-22T07:50:01.733Z,987.17
2022-12-22T08:00:01.582Z,987.4
2022-12-22T08:05:02.313Z,987.51
2022-12-22T08:10:01.347Z,987.57
2022-12-22T08:15:01.591Z,987.65
2022-12-22T08:20:01.554Z,987.67
2022-12-22T08:25:01.934Z,987.72
2022-12-22T08:30:01.499Z,987.91
2022-12-22T08:35:02.128Z,988.09
2022-12-22T08:40:01.780Z,988.15
2022-12-22T08:45:02.234Z,988.32
2022-12-22T08:50:01.906Z,988.38
2022-12-22T08:55:01.697Z,988.43
2022-12-22T09:00:01.439Z,988.54
2022-12-22T09:05:01.922Z,988.57
2022-12-22T09:10:02.167Z,988.71
2022-12-22T09:15:02.114Z,988.81
2022-12-22T09:20:01.881Z,988.93
2022-12-22T09:25:01.534Z,989.11
2022-12-22T09:30:01.945Z,989.39
2022-12-22T09:35:01.758Z,989.54
2022-12-22T09:40:01.491Z,989.76
2022-12-22T09:45:01.472Z,989.96
2022-12-22T09:50:01.513Z,990.11
2022-12-22T09:55:02.110Z,990.18
2022-12-22T10:00:01.403Z,990.28
2022-12-22T10:05:01.857Z,990.36
2022-12-22T10:10:01.786Z,990.36
2022-12-22T10:15:01.944Z,990.42
2022-12-22T10:20:02.129Z,990.4
2022-12-22T10:25:01.879Z,990.37
2022-12-22T10:30:02.235Z,990.47
2022-12-22T10:35:01.556Z,990.42
2022-12-22T10:40:02.237Z,990.52
2022-12-22T10:45:02.188Z,990.6
2022-12-22T10:50:01.724Z,990.7
2022-12-22T10:55:02.144Z,990.77
2022-12-22T11:00:01.922Z,990.92
2022-12-22T11:05:01.723Z,990.93
2022-12-22T11:10:01.520Z,991.08
2022-12-22T11:15:01.493Z,991.23
2022-12-22T11:20:02.161Z,991.22
2022-12-22T11:25:01.621Z,991.25
2022-12-22T11:30:01.484Z,991.36
2022-12-22T11:35:02.272Z,991.27
2022-12-22T11:40:01.555Z,991.32
2022-12-22T11:45:02.073Z,991.4
2022-12-22T11:50:58.270Z,991.47
2022-12-22T11:55:01.889Z,991.55
2022-12-22T12:00:01.993Z,991.58
2022-12-22T12:05:01.520Z,991.68
2022-12-22T12:10:02.091Z,991.68
2022-12-22T12:15:01.989Z,991.67
2022-12-22T12:20:01.962Z,991.81
2022-12-22T12:25:01.930Z,991.92
2022-12-22T12:30:36.403Z,992.01
2022-12-22T12:35:02.183Z,992
2022-12-22T12:40:02.215Z,991.97
2022-12-22T12:45:01.566Z,991.96
2022-12-22T12:50:02.062Z,991.91
2022-12-22T12:55:01.355Z,991.94
2022-12-22T13:00:02.135Z,991.95
2022-12-22T13:05:01.872Z,992.08
2022-12-22T13:10:01.457Z,992.08
2022-12-22T13:15:01.536Z,992.03
2022-12-22T13:20:01.620Z,991.98
2022-12-22T13:25:01.939Z,991.93
2022-12-22T13:30:01.521Z,992.07
2022-12-22T13:35:30.399Z,992.01
2022-12-22T13:40:01.729Z,992.01
2022-12-22T13:45:01.410Z,992.11
2022-12-22T13:50:09.397Z,992.17
2022-12-22T13:55:01.867Z,992.15
2022-12-22T14:00:01.991Z,992.22
2022-12-22T14:05:03.261Z,992.31
2022-12-22T14:10:02.012Z,992.39
2022-12-22T14:15:01.461Z,992.34
2022-12-22T14:20:02.247Z,992.27
2022-12-22T14:25:02.157Z,992.29
2022-12-22T14:30:01.532Z,992.17
2022-12-22T14:35:01.380Z,992.21
2022-12-22T14:40:02.110Z,992.2
2022-12-22T14:45:02.096Z,992.13
2022-12-22T14:50:01.365Z,991.97
2022-12-22T14:55:01.873Z,991.9
2022-12-22T15:00:02.263Z,991.88
2022-12-22T15:05:01.624Z,991.8
2022-12-22T15:10:16.938Z,991.73
2022-12-22T15:15:01.847Z,991.71
2022-12-22T15:20:02.323Z,991.65
2022-12-22T15:25:01.414Z,991.6
2022-12-22T15:30:02.198Z,991.57
2022-12-22T15:35:01.667Z,991.42
2022-12-22T15:40:01.422Z,991.42
2022-12-22T15:45:01.570Z,991.34
2022-12-22T15:50:02.161Z,991.24
2022-12-22T15:55:02.277Z,991.14
2022-12-22T16:00:01.495Z,991.11
2022-12-22T16:05:01.527Z,991.13
2022-12-22T16:10:01.578Z,991.16
2022-12-22T16:15:01.654Z,991.19
2022-12-22T16:20:01.385Z,991.21
2022-12-22T16:25:01.895Z,991.18
2022-12-22T16:30:02.046Z,991.18
2022-12-22T16:35:01.416Z,991.11
2022-12-22T16:40:01.798Z,990.97
2022-12-22T16:45:02.108Z,990.85
2022-12-22T16:50:02.275Z,990.84
2022-12-22T16:55:01.727Z,990.78
2022-12-22T17:00:01.881Z,990.72
2022-12-22T17:05:02.023Z,990.73
2022-12-22T17:10:01.504Z,990.69
2022-12-22T17:15:02.226Z,990.66
2022-12-22T17:20:02.269Z,990.62
2022-12-22T17:25:01.673Z,990.59
2022-12-22T17:30:02.143Z,990.54
2022-12-22T17:35:02.069Z,990.54
2022-12-22T17:40:01.750Z,990.37
2022-12-22T17:45:02.167Z,990.31
2022-12-22T17:50:01.897Z,990.26
2022-12-22T17:55:01.987Z,990.19
2022-12-22T18:00:02.193Z,990.08
2022-12-22T18:05:01.434Z,989.99
2022-12-22T18:10:01.480Z,989.92
2022-12-22T18:15:01.755Z,989.89
2022-12-22T18:20:01.804Z,989.83
2022-12-22T18:25:02.035Z,989.84
2022-12-22T18:30:01.958Z,989.69
2022-12-22T18:35:01.427Z,989.69
2022-12-22T18:40:01.919Z,989.6
2022-12-22T18:45:01.488Z,989.54
2022-12-22T18:50:02.185Z,989.44
2022-12-22T18:55:01.452Z,989.45
2022-12-22T19:00:04.508Z,989.47
2022-12-22T19:05:01.582Z,989.41
2022-12-22T19:10:01.437Z,989.37
2022-12-22T19:15:01.941Z,989.35
2022-12-22T19:20:02.140Z,989.34
2022-12-22T19:25:02.139Z,989.28
2022-12-22T19:30:04.352Z,989.2
2022-12-22T19:35:02.182Z,989.05
2022-12-22T19:40:01.733Z,988.98
2022-12-22T19:45:08.465Z,988.9
2022-12-22T19:50:01.656Z,988.91
2022-12-22T19:55:02.057Z,988.91
2022-12-22T20:00:01.511Z,988.9
2022-12-22T20:05:01.699Z,988.88
2022-12-22T20:10:02.150Z,988.85
2022-12-22T20:15:01.640Z,988.75
2022-12-22T20:20:02.207Z,988.79
2022-12-22T20:25:01.632Z,988.8
2022-12-22T20:30:01.451Z,988.84
2022-12-22T20:35:01.708Z,988.82
2022-12-22T20:40:01.623Z,988.82
2022-12-22T20:45:04.722Z,988.78
2022-12-22T20:50:02.155Z,988.65
2022-12-22T20:55:01.666Z,988.68
2022-12-22T21:00:01.950Z,988.71
2022-12-22T21:05:01.713Z,988.73
2022-12-22T21:10:01.799Z,988.7
2022-12-22T21:15:02.262Z,988.65
2022-12-22T21:20:01.806Z,988.6
2022-12-22T21:25:02.055Z,988.66
2022-12-22T21:30:02.215Z,988.61
2022-12-22T21:35:07.816Z,988.54
2022-12-22T21:40:02.060Z,988.5
2022-12-22T21:45:01.567Z,988.5
2022-12-22T21:50:02.230Z,988.49
2022-12-22T21:55:01.730Z,988.49
2022-12-22T22:00:01.697Z,988.42
2022-12-22T22:05:01.786Z,988.49
2022-12-22T22:10:01.956Z,988.59
2022-12-22T22:15:01.572Z,988.61
2022-12-22T22:20:02.265Z,988.59
2022-12-22T22:25:01.566Z,988.56
2022-12-22T22:30:02.024Z,988.59
2022-12-22T22:35:01.730Z,988.56
2022-12-22T22:40:01.389Z,988.62
2022-12-22T22:45:01.981Z,988.68
2022-12-22T22:50:02.231Z,988.64
2022-12-22T22:55:01.992Z,988.62
2022-12-22T23:00:02.343Z,988.72
2022-12-22T23:05:01.916Z,988.73
2022-12-22T23:10:02.234Z,988.66
2022-12-22T23:15:02.256Z,988.73
2022-12-22T23:20:01.694Z,988.72
2022-12-22T23:25:01.514Z,988.83
2022-12-22T23:30:01.435Z,988.76
2022-12-22T23:35:01.351Z,988.64
2022-12-22T23:40:33.236Z,988.69
2022-12-22T23:45:02.202Z,988.67
2022-12-22T23:50:01.417Z,988.73
2022-12-22T23:55:01.701Z,988.63
